sensor_id;sensor_type;location;lat;lon;timestamp;temperature;humidity
6792;DHT22;3433;48.730;9.108;2023-12-28T10:03:17;10.10;99.90
6792;DHT22;3433;48.730;9.108;2023-12-28T10:06:05;10.10;99.90
6792;DHT22;3433;48.730;9.108;2023-12-28T10:08:53;10.40;99.90
6792;DHT22;3433;48.730;9.108;2023-12-28T10:11:41;10.60;99.90
6792;DHT22;3433;48.730;9.108;2023-12-28T10:14:29;10.70;99.90
6792;DHT22;3433;48.730;9.108;2023-12-28T10:17:16;10.80;99.90
6792;DHT22;3433;48.730;9.108;2023-12-28T10:20:06;10.90;99.90
6792;DHT22;3433;48.730;9.108;2023-12-28T10:22:55;11.00;99.90
6792;DHT22;3433;48.730;9.108;2023-12-28T10:25:43;11.10;99.90
6792;DHT22;3433;48.730;9.108;2023-12-28T10:28:31;11.00;99.90
6792;DHT22;3433;48.730;9.108;2023-12-28T10:31:21;11.00;99.90
6792;DHT22;3433;48.730;9.108;2023-12-28T10:34:08;11.10;99.90
6792;DHT22;3433;48.730;9.108;2023-12-28T10:36:58;11.00;99.90
6792;DHT22;3433;48.730;9.108;2023-12-28T10:39:48;11.00;99.90
6792;DHT22;3433;48.730;9.108;2023-12-28T10:42:45;11.20;99.90
6792;DHT22;3433;48.730;9.108;2023-12-28T10:45:33;11.20;99.90
6792;DHT22;3433;48.730;9.108;2023-12-28T10:48:26;11.20;99.90
6792;DHT22;3433;48.730;9.108;2023-12-28T10:51:15;11.30;99.90
6792;DHT22;3433;48.730;9.108;2023-12-28T10:54:15;11.30;99.90
6792;DHT22;3433;48.730;9.108;2023-12-28T10:57:10;11.50;99.90
6792;DHT22;3433;48.730;9.108;2023-12-28T11:00:04;11.50;99.90
6792;DHT22;3433;48.730;9.108;2023-12-28T11:03:02;11.70;99.90
6792;DHT22;3433;48.730;9.108;2023-12-28T11:05:51;11.60;99.90
6792;DHT22;3433;48.730;9.108;2023-12-28T11:08:41;11.70;99.90
6792;DHT22;3433;48.730;9.108;2023-12-28T11:11:31;11.60;99.90
6792;DHT22;3433;48.730;9.108;2023-12-28T11:14:19;11.60;99.90
6792;DHT22;3433;48.730;9.108;2023-12-28T11:17:07;11.70;99.90
6792;DHT22;3433;48.730;9.108;2023-12-28T11:19:56;11.70;99.90
6792;DHT22;3433;48.730;9.108;2023-12-28T11:22:44;11.70;99.90
6792;DHT22;3433;48.730;9.108;2023-12-28T11:25:32;11.70;99.90
6792;DHT22;3433;48.730;9.108;2023-12-28T11:28:23;11.90;99.90
6792;DHT22;3433;48.730;9.108;2023-12-28T11:31:11;11.90;99.90
6792;DHT22;3433;48.730;9.108;2023-12-28T11:34:01;12.00;99.90
6792;DHT22;3433;48.730;9.108;2023-12-28T11:36:49;12.10;99.90
6792;DHT22;3433;48.730;9.108;2023-12-28T11:39:38;12.10;99.90
6792;DHT22;3433;48.730;9.108;2023-12-28T11:42:26;12.20;99.90
6792;DHT22;3433;48.730;9.108;2023-12-28T11:45:16;11.90;99.90
6792;DHT22;3433;48.730;9.108;2023-12-28T11:48:04;12.00;99.90
6792;DHT22;3433;48.730;9.108;2023-12-28T11:50:54;12.00;99.90
6792;DHT22;3433;48.730;9.108;2023-12-28T11:53:43;11.90;99.90
6792;DHT22;3433;48.730;9.108;2023-12-28T11:56:32;11.80;99.90
6792;DHT22;3433;48.730;9.108;2023-12-28T11:59:20;11.80;99.90
6792;DHT22;3433;48.730;9.108;2023-12-28T12:02:08;11.50;99.90
6792;DHT22;3433;48.730;9.108;2023-12-28T12:04:57;11.60;99.90
6792;DHT22;3433;48.730;9.108;2023-12-28T12:07:44;11.70;99.90
6792;DHT22;3433;48.730;9.108;2023-12-28T12:10:31;11.70;99.90
6792;DHT22;3433;48.730;9.108;2023-12-28T12:13:19;11.70;99.90
6792;DHT22;3433;48.730;9.108;2023-12-28T12:16:07;11.80;99.90
6792;DHT22;3433;48.730;9.108;2023-12-28T12:18:56;11.80;99.90
6792;DHT22;3433;48.730;9.108;2023-12-28T12:21:44;11.90;99.90
6792;DHT22;3433;48.730;9.108;2023-12-28T12:24:32;11.90;99.90
6792;DHT22;3433;48.730;9.108;2023-12-28T12:27:20;11.80;99.90
6792;DHT22;3433;48.730;9.108;2023-12-28T12:30:08;11.80;99.90
6792;DHT22;3433;48.730;9.108;2023-12-28T12:32:55;11.70;99.90
6792;DHT22;3433;48.730;9.108;2023-12-28T12:35:44;11.90;99.90
6792;DHT22;3433;48.730;9.108;2023-12-28T12:38:31;12.00;99.90
6792;DHT22;3433;48.730;9.108;2023-12-28T12:41:19;12.00;99.90
6792;DHT22;3433;48.730;9.108;2023-12-28T12:44:08;12.20;99.90
6792;DHT22;3433;48.730;9.108;2023-12-28T12:46:59;12.10;99.90
6792;DHT22;3433;48.730;9.108;2023-12-28T12:49:46;12.10;99.90
6792;DHT22;3433;48.730;9.108;2023-12-28T12:52:35;12.10;99.90
6792;DHT22;3433;48.730;9.108;2023-12-28T12:55:23;12.20;99.90
6792;DHT22;3433;48.730;9.108;2023-12-28T12:58:11;12.00;99.90
6792;DHT22;3433;48.730;9.108;2023-12-28T13:00:59;12.20;99.90
6792;DHT22;3433;48.730;9.108;2023-12-28T13:03:46;12.10;99.90
6792;DHT22;3433;48.730;9.108;2023-12-28T13:06:33;12.10;99.90
6792;DHT22;3433;48.730;9.108;2023-12-28T13:09:22;12.20;99.90
6792;DHT22;3433;48.730;9.108;2023-12-28T13:12:09;12.20;99.90
6792;DHT22;3433;48.730;9.108;2023-12-28T13:14:57;12.30;99.90
6792;DHT22;3433;48.730;9.108;2023-12-28T13:17:44;12.20;99.90
6792;DHT22;3433;48.730;9.108;2023-12-28T13:20:32;12.10;99.90
6792;DHT22;3433;48.730;9.108;2023-12-28T13:23:19;12.10;99.90
6792;DHT22;3433;48.730;9.108;2023-12-28T13:26:07;12.10;99.90
6792;DHT22;3433;48.730;9.108;2023-12-28T13:28:55;12.10;99.90
6792;DHT22;3433;48.730;9.108;2023-12-28T13:31:42;12.00;99.90
6792;DHT22;3433;48.730;9.108;2023-12-28T13:34:30;11.80;99.90
6792;DHT22;3433;48.730;9.108;2023-12-28T13:37:17;11.70;99.90
6792;DHT22;3433;48.730;9.108;2023-12-28T13:40:06;11.70;99.90
6792;DHT22;3433;48.730;9.108;2023-12-28T13:42:55;11.70;99.90
6792;DHT22;3433;48.730;9.108;2023-12-28T13:45:42;11.80;99.90
6792;DHT22;3433;48.730;9.108;2023-12-28T13:48:30;11.80;99.90
6792;DHT22;3433;48.730;9.108;2023-12-28T13:51:17;11.90;99.90
6792;DHT22;3433;48.730;9.108;2023-12-28T13:54:04;11.90;99.90
6792;DHT22;3433;48.730;9.108;2023-12-28T13:56:52;11.80;99.90
6792;DHT22;3433;48.730;9.108;2023-12-28T13:59:44;11.80;99.90
6792;DHT22;3433;48.730;9.108;2023-12-28T14:02:31;11.70;99.90
6792;DHT22;3433;48.730;9.108;2023-12-28T14:05:19;11.80;99.90
6792;DHT22;3433;48.730;9.108;2023-12-28T14:08:06;11.80;99.90
6792;DHT22;3433;48.730;9.108;2023-12-28T14:10:53;11.80;99.90
6792;DHT22;3433;48.730;9.108;2023-12-28T14:13:40;11.70;99.90
6792;DHT22;3433;48.730;9.108;2023-12-28T14:16:29;11.80;99.90
6792;DHT22;3433;48.730;9.108;2023-12-28T14:19:16;11.50;99.90
6792;DHT22;3433;48.730;9.108;2023-12-28T14:22:04;11.50;99.90
6792;DHT22;3433;48.730;9.108;2023-12-28T14:24:52;11.70;99.90
6792;DHT22;3433;48.730;9.108;2023-12-28T14:27:40;11.70;99.90
6792;DHT22;3433;48.730;9.108;2023-12-28T14:30:28;11.90;99.90
6792;DHT22;3433;48.730;9.108;2023-12-28T14:33:17;12.00;99.90
6792;DHT22;3433;48.730;9.108;2023-12-28T14:36:12;11.80;99.90
6792;DHT22;3433;48.730;9.108;2023-12-28T14:39:02;11.60;99.90
6792;DHT22;3433;48.730;9.108;2023-12-28T14:41:51;11.60;99.90
6792;DHT22;3433;48.730;9.108;2023-12-28T14:44:38;11.60;99.90
6792;DHT22;3433;48.730;9.108;2023-12-28T14:47:28;11.40;99.90
6792;DHT22;3433;48.730;9.108;2023-12-28T14:50:17;11.40;99.90
6792;DHT22;3433;48.730;9.108;2023-12-28T14:53:04;11.30;99.90
6792;DHT22;3433;48.730;9.108;2023-12-28T14:55:52;11.40;99.90
6792;DHT22;3433;48.730;9.108;2023-12-28T14:58:39;11.30;99.90
6792;DHT22;3433;48.730;9.108;2023-12-28T15:01:26;11.20;99.90
6792;DHT22;3433;48.730;9.108;2023-12-28T15:04:13;11.20;99.90
6792;DHT22;3433;48.730;9.108;2023-12-28T15:07:02;11.40;99.90
6792;DHT22;3433;48.730;9.108;2023-12-28T15:09:50;11.20;99.90
6792;DHT22;3433;48.730;9.108;2023-12-28T15:12:39;11.00;99.90
6792;DHT22;3433;48.730;9.108;2023-12-28T15:15:28;10.80;99.90
6792;DHT22;3433;48.730;9.108;2023-12-28T15:18:15;10.90;99.90
6792;DHT22;3433;48.730;9.108;2023-12-28T15:21:04;10.90;99.90
6792;DHT22;3433;48.730;9.108;2023-12-28T15:23:53;10.80;99.90
6792;DHT22;3433;48.730;9.108;2023-12-28T15:26:41;10.90;99.90
6792;DHT22;3433;48.730;9.108;2023-12-28T15:29:29;10.90;99.90
6792;DHT22;3433;48.730;9.108;2023-12-28T15:32:16;11.00;99.90
6792;DHT22;3433;48.730;9.108;2023-12-28T15:35:04;11.10;99.90
6792;DHT22;3433;48.730;9.108;2023-12-28T15:37:52;10.80;99.90
6792;DHT22;3433;48.730;9.108;2023-12-28T15:40:42;10.80;99.90
6792;DHT22;3433;48.730;9.108;2023-12-28T15:43:29;10.70;99.90
6792;DHT22;3433;48.730;9.108;2023-12-28T15:46:17;10.70;99.90
6792;DHT22;3433;48.730;9.108;2023-12-28T15:49:04;10.70;99.90
6792;DHT22;3433;48.730;9.108;2023-12-28T15:51:51;10.80;99.90
6792;DHT22;3433;48.730;9.108;2023-12-28T15:54:38;10.70;99.90
6792;DHT22;3433;48.730;9.108;2023-12-28T15:57:27;10.70;99.90
6792;DHT22;3433;48.730;9.108;2023-12-28T16:00:14;10.50;99.90
6792;DHT22;3433;48.730;9.108;2023-12-28T16:03:02;10.40;99.90
6792;DHT22;3433;48.730;9.108;2023-12-28T16:05:50;10.40;99.90
6792;DHT22;3433;48.730;9.108;2023-12-28T16:08:37;10.60;99.90
6792;DHT22;3433;48.730;9.108;2023-12-28T16:11:24;10.60;99.90
6792;DHT22;3433;48.730;9.108;2023-12-28T16:14:14;10.70;99.90
6792;DHT22;3433;48.730;9.108;2023-12-28T16:17:02;10.60;99.90
6792;DHT22;3433;48.730;9.108;2023-12-28T16:19:50;10.50;99.90
6792;DHT22;3433;48.730;9.108;2023-12-28T16:22:38;10.50;99.90
6792;DHT22;3433;48.730;9.108;2023-12-28T16:25:25;10.50;99.90
6792;DHT22;3433;48.730;9.108;2023-12-28T16:28:12;10.40;99.90
6792;DHT22;3433;48.730;9.108;2023-12-28T16:31:01;10.40;99.90
6792;DHT22;3433;48.730;9.108;2023-12-28T16:33:48;10.40;99.90
6792;DHT22;3433;48.730;9.108;2023-12-28T16:36:35;10.50;99.90
6792;DHT22;3433;48.730;9.108;2023-12-28T16:39:23;10.50;99.90
6792;DHT22;3433;48.730;9.108;2023-12-28T16:42:10;10.50;99.90
6792;DHT22;3433;48.730;9.108;2023-12-28T16:44:57;10.20;99.90
6792;DHT22;3433;48.730;9.108;2023-12-28T16:47:46;10.10;99.90
6792;DHT22;3433;48.730;9.108;2023-12-28T16:50:33;10.10;99.90
6792;DHT22;3433;48.730;9.108;2023-12-28T16:53:23;10.20;99.90
6792;DHT22;3433;48.730;9.108;2023-12-28T16:56:10;10.40;99.90
6792;DHT22;3433;48.730;9.108;2023-12-28T16:58:58;10.30;99.90
6792;DHT22;3433;48.730;9.108;2023-12-28T17:01:45;10.30;99.90
6792;DHT22;3433;48.730;9.108;2023-12-28T17:04:34;10.40;99.90
6792;DHT22;3433;48.730;9.108;2023-12-28T17:07:21;10.40;99.90
6792;DHT22;3433;48.730;9.108;2023-12-28T17:10:10;10.40;99.90
6792;DHT22;3433;48.730;9.108;2023-12-28T22:56:17;8.50;99.90
6792;DHT22;3433;48.730;9.108;2023-12-28T22:59:04;9.10;99.90
6792;DHT22;3433;48.730;9.108;2023-12-28T23:01:51;9.30;99.90
6792;DHT22;3433;48.730;9.108;2023-12-28T23:04:39;9.60;99.90
6792;DHT22;3433;48.730;9.108;2023-12-28T23:07:26;9.70;99.90
6792;DHT22;3433;48.730;9.108;2023-12-28T23:10:13;10.00;99.90
6792;DHT22;3433;48.730;9.108;2023-12-28T23:13:03;9.80;99.90
6792;DHT22;3433;48.730;9.108;2023-12-28T23:15:50;9.70;99.90
6792;DHT22;3433;48.730;9.108;2023-12-28T23:18:37;9.70;99.90
6792;DHT22;3433;48.730;9.108;2023-12-28T23:21:24;9.60;99.90
6792;DHT22;3433;48.730;9.108;2023-12-28T23:24:11;9.60;99.90
6792;DHT22;3433;48.730;9.108;2023-12-28T23:26:59;9.60;99.90
6792;DHT22;3433;48.730;9.108;2023-12-28T23:29:47;9.60;99.90
6792;DHT22;3433;48.730;9.108;2023-12-28T23:32:34;9.50;99.90
6792;DHT22;3433;48.730;9.108;2023-12-28T23:35:21;9.40;99.90
6792;DHT22;3433;48.730;9.108;2023-12-28T23:38:09;9.50;99.90
6792;DHT22;3433;48.730;9.108;2023-12-28T23:40:56;9.50;99.90
6792;DHT22;3433;48.730;9.108;2023-12-28T23:43:43;9.60;99.90
6792;DHT22;3433;48.730;9.108;2023-12-28T23:46:31;9.70;99.90
6792;DHT22;3433;48.730;9.108;2023-12-28T23:49:23;9.70;99.90
6792;DHT22;3433;48.730;9.108;2023-12-28T23:52:10;9.70;99.90
6792;DHT22;3433;48.730;9.108;2023-12-28T23:54:57;9.50;99.90
6792;DHT22;3433;48.730;9.108;2023-12-28T23:57:44;9.70;99.90
